Time;durP1;ratioP1;P1;durP2;ratioP2;P2;SDS_P1;SDS_P2;PMS_P1;PMS_P2;Temp;Humidity;BMP_temperature;BMP_pressure;BME280_temperature;BME280_humidity;BME280_pressure;Samples;Min_cycle;Max_cycle;Signal;HPM_P1;HPM_P2
2023/04/04 00:00:25;;;;;;;9.68;4.50;;;3.30;99.90;;;;;;6095088;23;93413;-77
2023/04/04 00:02:52;;;;;;;7.82;3.88;;;3.30;99.90;;;;;;6044359;23;95694;-77
2023/04/04 00:05:19;;;;;;;8.63;4.70;;;3.30;99.90;;;;;;6067627;23;94929;-77
2023/04/04 00:07:47;;;;;;;5.38;3.85;;;3.30;99.90;;;;;;6044547;23;92322;-77
2023/04/04 00:10:15;;;;;;;6.18;3.97;;;3.30;99.90;;;;;;6044384;23;96271;-77
2023/04/04 00:12:42;;;;;;;7.63;4.30;;;3.30;99.90;;;;;;6094713;23;93111;-77
2023/04/04 00:15:10;;;;;;;8.18;5.13;;;3.30;99.90;;;;;;6044981;23;92651;-77
2023/04/04 00:17:37;;;;;;;7.38;4.28;;;3.20;99.90;;;;;;6094762;23;92379;-77
2023/04/04 00:20:05;;;;;;;6.43;4.10;;;3.20;99.90;;;;;;6069090;23;93055;-77
2023/04/04 00:22:32;;;;;;;9.68;4.38;;;3.20;99.90;;;;;;6095592;23;92890;-77
2023/04/04 00:24:59;;;;;;;6.72;4.28;;;3.20;99.90;;;;;;6094670;23;92397;-77
2023/04/04 00:27:26;;;;;;;7.20;4.07;;;3.20;99.90;;;;;;6068877;23;92295;-77
2023/04/04 00:29:53;;;;;;;5.70;4.30;;;3.10;99.90;;;;;;6066755;23;98090;-77
2023/04/04 00:32:20;;;;;;;9.10;4.60;;;3.10;99.90;;;;;;6068399;23;104760;-77
2023/04/04 00:34:53;;;;;;;5.72;4.10;;;3.10;99.90;;;;;;6068466;23;92445;-77
2023/04/04 00:37:20;;;;;;;4.83;4.13;;;3.10;99.90;;;;;;6070069;23;92470;-77
2023/04/04 00:39:48;;;;;;;6.10;3.95;;;3.10;99.90;;;;;;6045358;23;95905;-77
2023/04/04 00:42:15;;;;;;;5.63;3.95;;;3.00;99.90;;;;;;6070567;23;92441;-77
2023/04/04 00:44:42;;;;;;;7.63;4.28;;;3.00;99.90;;;;;;6045868;23;92366;-77
2023/04/04 00:47:10;;;;;;;7.80;4.57;;;3.00;99.90;;;;;;6046394;23;91861;-77
2023/04/04 00:49:37;;;;;;;5.32;4.15;;;3.00;99.90;;;;;;6070516;23;92535;-77
2023/04/04 00:52:06;;;;;;;5.82;4.30;;;3.00;99.90;;;;;;6069880;23;95101;-77
2023/04/04 00:54:34;;;;;;;6.35;4.00;;;3.00;99.90;;;;;;6068408;23;94786;-77
2023/04/04 00:57:03;;;;;;;6.78;4.50;;;2.90;99.90;;;;;;6045503;23;92513;-77
2023/04/04 00:59:30;;;;;;;7.10;4.13;;;2.90;99.90;;;;;;6096247;23;92872;-77
2023/04/04 01:01:59;;;;;;;5.80;3.78;;;2.90;99.90;;;;;;6069633;23;95526;-77
2023/04/04 01:04:30;;;;;;;5.50;3.80;;;2.90;99.90;;;;;;6070139;23;92414;-77
2023/04/04 01:06:58;;;;;;;4.60;3.70;;;2.90;99.90;;;;;;6069907;23;92466;-77
2023/04/04 01:09:26;;;;;;;4.60;3.05;;;2.90;99.90;;;;;;6069848;23;95669;-77
2023/04/04 01:11:56;;;;;;;5.57;3.67;;;2.90;99.90;;;;;;6046150;23;95159;-77
2023/04/04 01:14:24;;;;;;;7.93;3.63;;;2.90;99.90;;;;;;6045641;23;92583;-77
2023/04/04 01:16:52;;;;;;;4.43;3.10;;;2.90;99.90;;;;;;6069523;23;92498;-77
2023/04/04 01:19:29;;;;;;;5.10;3.08;;;2.80;99.90;;;;;;6044507;23;97670;-77
2023/04/04 01:21:58;;;;;;;6.35;2.92;;;2.80;99.90;;;;;;6045711;23;97655;-77
2023/04/04 01:24:27;;;;;;;5.20;2.72;;;2.80;99.90;;;;;;6069737;23;92754;-77
2023/04/04 01:26:57;;;;;;;5.07;3.03;;;2.80;99.90;;;;;;6046767;23;92350;-77
2023/04/04 01:29:24;;;;;;;5.78;3.00;;;2.80;99.90;;;;;;6045443;23;95788;-77
2023/04/04 01:32:02;;;;;;;6.47;2.97;;;2.80;99.90;;;;;;6045302;23;95656;-77
2023/04/04 01:35:03;;;;;;;5.95;3.10;;;2.80;99.90;;;;;;6070346;23;92862;-77
2023/04/04 01:37:45;;;;;;;4.05;2.80;;;2.80;99.90;;;;;;6070451;23;91655;-77
2023/04/04 01:40:21;;;;;;;3.72;3.08;;;2.70;99.90;;;;;;6069769;23;95706;-77
2023/04/04 01:42:51;;;;;;;4.82;3.00;;;2.70;99.90;;;;;;6069689;23;95236;-77
2023/04/04 01:45:21;;;;;;;3.20;2.55;;;2.70;99.90;;;;;;6094995;23;94776;-77
2023/04/04 01:47:49;;;;;;;3.70;2.97;;;2.60;99.90;;;;;;6069337;23;92431;-77
2023/04/04 01:50:19;;;;;;;5.82;3.17;;;2.60;99.90;;;;;;6046316;23;95628;-77
2023/04/04 01:52:47;;;;;;;5.15;3.15;;;2.60;99.90;;;;;;6045559;23;95525;-77
2023/04/04 01:55:14;;;;;;;5.00;3.00;;;2.60;99.90;;;;;;6096183;23;92282;-77
2023/04/04 01:57:41;;;;;;;3.72;2.85;;;2.50;99.90;;;;;;6045698;23;92867;-77
2023/04/04 02:00:09;;;;;;;5.25;3.42;;;2.50;99.90;;;;;;6045112;23;95559;-77
2023/04/04 02:02:42;;;;;;;3.60;2.88;;;2.50;99.90;;;;;;6096598;23;92712;-77
2023/04/04 02:05:10;;;;;;;5.57;3.22;;;2.40;99.90;;;;;;6069537;23;92428;-77
2023/04/04 02:07:37;;;;;;;6.72;3.50;;;2.40;99.90;;;;;;6045511;23;92518;-76
2023/04/04 02:10:13;;;;;;;6.55;3.85;;;2.40;99.90;;;;;;6045531;23;96950;-77
2023/04/04 02:12:40;;;;;;;5.45;3.80;;;2.40;99.90;;;;;;6069439;23;97761;-76
2023/04/04 02:15:07;;;;;;;4.18;2.88;;;2.40;99.90;;;;;;6095696;23;92487;-77
2023/04/04 02:17:34;;;;;;;3.80;2.35;;;2.40;99.90;;;;;;6095887;23;92392;-77
2023/04/04 02:20:02;;;;;;;4.47;3.28;;;2.30;99.90;;;;;;6069283;23;95509;-77
2023/04/04 02:22:29;;;;;;;3.90;3.08;;;2.30;99.90;;;;;;6095810;23;92838;-77
2023/04/04 02:24:56;;;;;;;5.47;3.40;;;2.30;99.90;;;;;;6045130;23;92459;-77
2023/04/04 02:27:23;;;;;;;5.22;3.33;;;2.30;99.90;;;;;;6096359;23;91645;-77
2023/04/04 02:29:50;;;;;;;5.20;2.92;;;2.30;99.90;;;;;;6045342;23;95647;-76
2023/04/04 02:32:17;;;;;;;5.57;3.38;;;2.30;99.90;;;;;;6069451;23;95661;-77
2023/04/04 02:34:44;;;;;;;6.07;3.25;;;2.30;99.90;;;;;;6068254;23;94778;-77
2023/04/04 02:37:12;;;;;;;6.85;2.88;;;2.20;99.90;;;;;;6045232;23;93469;-77
2023/04/04 02:39:39;;;;;;;4.65;2.85;;;2.20;99.90;;;;;;6045264;23;95865;-77
2023/04/04 02:42:06;;;;;;;6.75;3.40;;;2.20;99.90;;;;;;6095442;23;92394;-77
2023/04/04 02:44:33;;;;;;;4.30;2.70;;;2.20;99.90;;;;;;6070231;23;92349;-77
2023/04/04 02:47:01;;;;;;;5.13;3.38;;;2.10;99.90;;;;;;6069192;23;92739;-77
2023/04/04 02:49:30;;;;;;;4.15;2.58;;;2.10;99.90;;;;;;6069206;23;95580;-77
2023/04/04 02:51:57;;;;;;;5.05;3.20;;;2.10;99.90;;;;;;6069615;23;95515;-77
2023/04/04 02:54:29;;;;;;;4.15;2.83;;;2.10;99.90;;;;;;6046413;23;92866;-77
2023/04/04 02:56:56;;;;;;;3.67;2.60;;;2.10;99.90;;;;;;6069203;23;92495;-77
2023/04/04 02:59:23;;;;;;;3.97;2.70;;;2.10;99.90;;;;;;6067719;23;95510;-77
2023/04/04 03:01:50;;;;;;;3.58;2.97;;;2.10;99.90;;;;;;6044841;23;97855;-77
2023/04/04 03:04:18;;;;;;;5.65;3.65;;;2.00;99.90;;;;;;6069224;23;92537;-77
2023/04/04 03:06:47;;;;;;;4.10;2.72;;;2.00;99.90;;;;;;6045325;23;92416;-77
2023/04/04 03:09:14;;;;;;;5.72;2.78;;;2.00;99.90;;;;;;6068800;23;95474;-77
2023/04/04 03:11:41;;;;;;;4.53;2.85;;;2.00;99.90;;;;;;6069234;23;95537;-77
2023/04/04 03:14:09;;;;;;;3.45;2.63;;;2.00;99.90;;;;;;6068976;23;92511;-77
2023/04/04 03:16:38;;;;;;;4.25;3.10;;;2.00;99.90;;;;;;6069691;23;91748;-77
2023/04/04 03:19:06;;;;;;;3.63;2.80;;;1.90;99.90;;;;;;6068773;23;95508;-77
2023/04/04 03:21:33;;;;;;;4.63;3.17;;;1.90;99.90;;;;;;6095494;23;93168;-77
2023/04/04 03:24:00;;;;;;;3.35;2.75;;;1.90;99.90;;;;;;6067696;23;94960;-77
2023/04/04 03:26:28;;;;;;;5.25;2.67;;;1.90;99.90;;;;;;6045174;23;92481;-77
2023/04/04 03:28:55;;;;;;;3.78;2.38;;;1.90;99.90;;;;;;6069032;23;95824;-77
2023/04/04 03:31:23;;;;;;;5.95;3.13;;;1.90;99.90;;;;;;6044735;23;95413;-77
2023/04/04 03:33:51;;;;;;;7.78;3.40;;;1.80;99.90;;;;;;6045243;23;92833;-77
2023/04/04 03:36:18;;;;;;;5.72;2.92;;;1.80;99.90;;;;;;6069069;23;92440;-77
2023/04/04 03:38:48;;;;;;;4.22;3.03;;;1.70;99.90;;;;;;6069138;23;95398;-77
2023/04/04 03:41:15;;;;;;;4.88;2.80;;;1.70;99.90;;;;;;6069592;23;92866;-77
2023/04/04 03:43:41;;;;;;;5.65;3.17;;;1.60;99.90;;;;;;6069322;23;92456;-77
2023/04/04 03:46:08;;;;;;;6.43;2.75;;;1.60;99.90;;;;;;6068847;23;92467;-77
2023/04/04 03:48:36;;;;;;;6.63;3.35;;;1.60;99.90;;;;;;6093574;23;95575;-77
2023/04/04 03:51:06;;;;;;;4.03;2.70;;;1.50;99.90;;;;;;6068814;23;97624;-77
2023/04/04 03:53:35;;;;;;;6.22;3.28;;;1.50;99.90;;;;;;6069140;23;92352;-77
2023/04/04 03:56:02;;;;;;;6.90;3.13;;;1.50;99.90;;;;;;6068928;23;93082;-77
2023/04/04 03:58:29;;;;;;;6.22;3.00;;;1.50;99.90;;;;;;6068616;23;95902;-77
2023/04/04 04:00:56;;;;;;;7.00;2.97;;;1.50;99.90;;;;;;6068734;23;95728;-77
2023/04/04 04:03:27;;;;;;;3.25;2.53;;;1.40;99.90;;;;;;6068634;23;92383;-77
2023/04/04 04:05:54;;;;;;;6.18;3.03;;;1.40;99.90;;;;;;6095784;23;91637;-77
2023/04/04 04:08:21;;;;;;;3.75;3.00;;;1.40;99.90;;;;;;6068544;23;95727;-77
2023/04/04 04:10:50;;;;;;;5.50;3.17;;;1.40;99.90;;;;;;6095031;23;92907;-77
2023/04/04 04:13:17;;;;;;;7.40;3.15;;;1.40;99.90;;;;;;6068220;23;94775;-77
2023/04/04 04:15:44;;;;;;;3.75;3.00;;;1.30;99.90;;;;;;6070410;23;92996;-77
2023/04/04 04:18:16;;;;;;;8.00;3.47;;;1.30;99.90;;;;;;6069818;23;95452;-77
2023/04/04 04:20:43;;;;;;;6.13;3.20;;;1.30;99.90;;;;;;6070100;23;95879;-78
2023/04/04 04:23:10;;;;;;;5.85;3.03;;;1.20;99.90;;;;;;6070126;23;92927;-77
2023/04/04 04:25:38;;;;;;;3.47;2.85;;;1.20;99.90;;;;;;6070213;23;92434;-77
2023/04/04 04:28:13;;;;;;;5.90;4.07;;;1.20;99.90;;;;;;6069805;23;95536;-77
2023/04/04 04:30:40;;;;;;;3.85;3.10;;;1.10;99.90;;;;;;6070346;23;95224;-77
2023/04/04 04:33:08;;;;;;;6.82;3.55;;;1.10;99.90;;;;;;6045828;23;92522;-77
2023/04/04 04:35:43;;;;;;;5.18;4.00;;;1.10;99.90;;;;;;6070491;23;92491;-78
2023/04/04 04:38:10;;;;;;;8.60;4.50;;;1.10;99.90;;;;;;6043869;23;98104;-77
2023/04/04 04:40:38;;;;;;;5.07;3.70;;;1.10;99.90;;;;;;6045528;23;97669;-77
2023/04/04 04:43:12;;;;;;;5.15;3.65;;;1.00;99.90;;;;;;6069769;23;92432;-77
2023/04/04 04:45:41;;;;;;;5.10;4.07;;;1.00;99.90;;;;;;6070213;23;92350;-77
2023/04/04 04:48:09;;;;;;;4.68;3.60;;;1.00;99.90;;;;;;6069983;23;96302;-77
2023/04/04 04:50:47;;;;;;;6.30;3.85;;;0.90;99.90;;;;;;6047927;23;95383;-77
2023/04/04 04:53:21;;;;;;;4.82;3.95;;;0.90;99.90;;;;;;6047159;23;92644;-78
2023/04/04 04:55:50;;;;;;;8.63;3.83;;;0.90;99.90;;;;;;6046302;23;91789;-77
2023/04/04 04:58:21;;;;;;;6.47;4.00;;;0.90;99.90;;;;;;6069394;23;95461;-77
2023/04/04 05:00:55;;;;;;;6.70;3.95;;;0.90;99.90;;;;;;6069718;23;94241;-77
2023/04/04 05:03:23;;;;;;;4.53;4.07;;;0.90;99.90;;;;;;6044660;23;95269;-78
2023/04/04 05:05:51;;;;;;;5.15;3.80;;;0.90;99.90;;;;;;6069955;23;92451;-77
2023/04/04 05:08:18;;;;;;;5.95;4.70;;;0.90;99.90;;;;;;6069479;23;96084;-77
2023/04/04 05:10:54;;;;;;;5.50;4.60;;;0.90;99.90;;;;;;6047646;23;95187;-77
2023/04/04 05:13:25;;;;;;;7.47;4.00;;;0.90;99.90;;;;;;6095624;23;92451;-78
2023/04/04 05:15:52;;;;;;;7.90;4.65;;;0.90;99.90;;;;;;6070380;23;92572;-78
2023/04/04 05:18:20;;;;;;;5.75;4.78;;;0.90;99.90;;;;;;6045346;23;95472;-77
2023/04/04 05:20:52;;;;;;;10.02;5.10;;;0.90;99.90;;;;;;6096414;23;92864;-78
2023/04/04 05:23:20;;;;;;;5.87;4.40;;;1.00;99.90;;;;;;6069391;23;92431;-78
2023/04/04 05:25:52;;;;;;;8.95;4.80;;;1.00;99.90;;;;;;6069806;23;92498;-77
2023/04/04 05:28:20;;;;;;;6.45;4.90;;;1.00;99.90;;;;;;6067964;23;97179;-78
2023/04/04 05:30:49;;;;;;;8.38;4.82;;;1.10;99.90;;;;;;6045444;23;97735;-77
2023/04/04 05:33:20;;;;;;;10.80;5.20;;;1.10;99.90;;;;;;6069842;23;92446;-77
2023/04/04 05:35:59;;;;;;;5.75;4.28;;;1.20;99.90;;;;;;6070017;23;92431;-78
2023/04/04 05:38:28;;;;;;;5.97;4.53;;;1.30;99.90;;;;;;6069073;23;95101;-78
2023/04/04 05:40:55;;;;;;;8.50;4.40;;;1.40;99.90;;;;;;6045605;23;95330;-77
2023/04/04 05:43:23;;;;;;;4.78;4.28;;;1.50;99.90;;;;;;6069245;23;92362;-78
2023/04/04 05:46:05;;;;;;;5.03;4.03;;;1.60;99.90;;;;;;6070319;23;91718;-78
2023/04/04 05:48:39;;;;;;;8.10;4.22;;;1.70;99.90;;;;;;6069626;23;95339;-78
2023/04/04 05:51:06;;;;;;;4.53;4.10;;;1.80;99.90;;;;;;6069620;23;95530;-78
2023/04/04 05:53:40;;;;;;;7.88;4.15;;;2.00;99.90;;;;;;6045662;23;94807;-78
2023/04/04 05:56:07;;;;;;;6.10;3.80;;;2.10;99.90;;;;;;6069788;23;92501;-78
2023/04/04 05:58:35;;;;;;;6.30;3.90;;;2.20;99.90;;;;;;6045231;23;95829;-78
2023/04/04 06:01:07;;;;;;;6.22;4.40;;;2.30;99.90;;;;;;6045537;23;95196;-78
2023/04/04 06:03:35;;;;;;;6.55;4.18;;;2.40;99.90;;;;;;6069645;23;92406;-78
2023/04/04 06:06:06;;;;;;;8.70;3.60;;;2.60;99.90;;;;;;6069476;23;92487;-78
2023/04/04 06:08:33;;;;;;;6.18;4.00;;;2.70;99.90;;;;;;6069212;23;95749;-78
2023/04/04 06:11:09;;;;;;;5.13;3.90;;;2.80;99.90;;;;;;6070192;23;95342;-78
2023/04/04 06:13:36;;;;;;;4.32;3.20;;;2.90;99.90;;;;;;6069220;23;93235;-78
2023/04/04 06:16:07;;;;;;;3.88;3.15;;;2.90;99.90;;;;;;6069453;23;92435;-78
2023/04/04 06:18:34;;;;;;;6.00;3.80;;;3.10;99.90;;;;;;6067502;23;96737;-78
2023/04/04 06:21:01;;;;;;;5.57;3.60;;;3.30;99.90;;;;;;6069692;23;94305;-78
2023/04/04 06:23:28;;;;;;;5.80;3.33;;;3.50;99.90;;;;;;6095753;23;92374;-78
2023/04/04 06:25:55;;;;;;;6.63;4.00;;;3.70;99.90;;;;;;6069556;23;92475;-78
2023/04/04 06:28:23;;;;;;;4.72;3.72;;;3.90;99.90;;;;;;6045280;23;95777;-78
2023/04/04 06:30:50;;;;;;;6.63;3.78;;;4.00;99.90;;;;;;6045463;23;95557;-78
2023/04/04 06:33:26;;;;;;;3.80;3.33;;;4.10;99.90;;;;;;6069581;23;92432;-78
2023/04/04 06:35:54;;;;;;;7.15;3.67;;;4.30;99.90;;;;;;6045750;23;91701;-78
2023/04/04 06:38:21;;;;;;;5.53;3.55;;;4.50;99.90;;;;;;6045121;23;95618;-78
2023/04/04 06:40:49;;;;;;;4.75;4.32;;;4.70;99.90;;;;;;6045210;23;95198;-78
2023/04/04 06:43:16;;;;;;;6.20;3.50;;;5.10;99.90;;;;;;6092919;23;94834;-78
2023/04/04 06:45:45;;;;;;;5.70;3.40;;;5.50;99.90;;;;;;6069206;23;92958;-78
2023/04/04 06:48:12;;;;;;;5.93;3.70;;;5.90;99.90;;;;;;6095658;23;93062;-77
2023/04/04 06:50:39;;;;;;;5.80;3.38;;;6.10;99.90;;;;;;6069017;23;95685;-77
2023/04/04 06:53:11;;;;;;;4.32;3.30;;;6.40;99.90;;;;;;6069726;23;92451;-78
2023/04/04 06:55:38;;;;;;;6.25;3.80;;;6.70;99.90;;;;;;6045302;23;92390;-77
2023/04/04 06:58:05;;;;;;;5.78;3.60;;;6.90;99.90;;;;;;6095579;23;93314;-78
2023/04/04 07:00:33;;;;;;;4.72;3.10;;;7.20;99.40;;;;;;6045315;23;95226;-77
2023/04/04 07:03:00;;;;;;;5.32;3.35;;;7.60;98.30;;;;;;6045494;23;93006;-77
2023/04/04 07:05:28;;;;;;;4.57;3.15;;;8.00;97.30;;;;;;6095809;23;92410;-77
2023/04/04 07:07:55;;;;;;;4.63;3.20;;;8.30;97.10;;;;;;6043464;23;98254;-77
2023/04/04 07:10:24;;;;;;;10.23;3.60;;;8.50;96.70;;;;;;6095310;23;95343;-77
2023/04/04 07:12:51;;;;;;;4.63;3.15;;;8.70;96.10;;;;;;6068439;23;95855;-77
2023/04/04 07:15:18;;;;;;;4.25;2.90;;;8.70;95.30;;;;;;6069984;23;92455;-77
2023/04/04 07:17:45;;;;;;;3.47;3.17;;;8.80;94.30;;;;;;6095178;23;93097;-77
2023/04/04 07:20:12;;;;;;;5.35;3.10;;;8.90;94.10;;;;;;6069050;23;95457;-78
2023/04/04 07:22:41;;;;;;;4.25;3.58;;;9.00;93.20;;;;;;6069422;23;92488;-78
2023/04/04 07:25:08;;;;;;;5.47;3.08;;;9.30;92.60;;;;;;6070562;23;91685;-77
2023/04/04 07:27:35;;;;;;;3.42;2.80;;;9.60;91.80;;;;;;6069295;23;93216;-77
2023/04/04 07:30:03;;;;;;;4.28;3.05;;;9.90;91.50;;;;;;6095298;23;92885;-77
2023/04/04 07:32:30;;;;;;;5.07;3.63;;;10.10;90.30;;;;;;6068167;23;94904;-78
2023/04/04 07:34:57;;;;;;;5.78;3.40;;;10.30;89.80;;;;;;6069711;23;92486;-77
2023/04/04 07:37:27;;;;;;;4.03;3.67;;;10.50;86.90;;;;;;6069465;23;93366;-78
2023/04/04 07:39:54;;;;;;;3.78;3.35;;;10.90;85.70;;;;;;6068980;23;92986;-77
2023/04/04 07:42:24;;;;;;;4.13;3.60;;;11.20;84.20;;;;;;6069727;23;92499;-77
2023/04/04 07:44:51;;;;;;;6.97;3.70;;;11.60;83.40;;;;;;6044560;23;92472;-77
2023/04/04 07:47:19;;;;;;;4.50;3.75;;;11.90;81.60;;;;;;6069713;23;105081;-77
2023/04/04 07:49:46;;;;;;;4.25;3.40;;;12.30;80.30;;;;;;6046620;23;95353;-78
2023/04/04 07:52:13;;;;;;;3.65;2.92;;;12.60;78.10;;;;;;6070810;23;92379;-77
2023/04/04 07:54:40;;;;;;;3.65;2.97;;;12.60;77.20;;;;;;6096345;23;92385;-78
2023/04/04 07:57:08;;;;;;;4.65;3.20;;;12.50;76.90;;;;;;6094921;23;95561;-78
2023/04/04 07:59:36;;;;;;;4.15;3.60;;;12.60;77.50;;;;;;6096087;23;95362;-78
2023/04/04 08:02:03;;;;;;;4.78;4.00;;;12.90;75.80;;;;;;6096793;23;92606;-77
2023/04/04 08:04:30;;;;;;;4.43;4.03;;;13.30;76.00;;;;;;6070266;23;92476;-77
2023/04/04 08:06:57;;;;;;;4.68;4.28;;;13.90;74.10;;;;;;6070421;23;93017;-78
2023/04/04 08:09:24;;;;;;;5.15;4.68;;;14.50;73.10;;;;;;6046268;23;93015;-78
2023/04/04 08:11:51;;;;;;;6.13;4.80;;;15.10;71.30;;;;;;6096492;23;92865;-78
2023/04/04 08:14:18;;;;;;;5.50;5.05;;;15.60;70.20;;;;;;6046502;23;91671;-78
2023/04/04 08:16:45;;;;;;;5.72;5.22;;;16.10;68.80;;;;;;6070197;23;93205;-78
2023/04/04 08:19:12;;;;;;;5.60;5.15;;;16.60;65.10;;;;;;6095968;23;98997;-78
2023/04/04 08:21:39;;;;;;;5.15;4.75;;;16.80;62.80;;;;;;6095239;23;95398;-78
2023/04/04 08:24:06;;;;;;;5.30;4.90;;;17.10;62.30;;;;;;6096464;23;92458;-78
2023/04/04 08:26:33;;;;;;;5.60;5.20;;;17.40;60.30;;;;;;6096237;23;92356;-78
2023/04/04 08:29:00;;;;;;;5.03;4.60;;;17.70;58.60;;;;;;6069938;23;92916;-78
2023/04/04 08:31:28;;;;;;;6.53;6.03;;;17.80;57.80;;;;;;6070780;23;92339;-78
2023/04/04 08:33:55;;;;;;;5.63;5.13;;;17.90;55.50;;;;;;6022008;23;92435;-78
2023/04/04 08:36:23;;;;;;;5.97;5.32;;;17.70;51.00;;;;;;6070200;23;95820;-78
2023/04/04 08:38:50;;;;;;;4.28;3.88;;;17.50;52.60;;;;;;6070000;23;93863;-78
2023/04/04 08:41:17;;;;;;;4.15;2.60;;;17.30;52.20;;;;;;6096639;23;92300;-78
2023/04/04 08:43:46;;;;;;;5.07;2.58;;;17.00;51.80;;;;;;6070307;23;92415;-78
2023/04/04 08:46:14;;;;;;;3.65;2.33;;;16.70;51.50;;;;;;6068199;23;99359;-77
2023/04/04 08:48:43;;;;;;;2.60;2.10;;;16.10;51.80;;;;;;6070392;23;95257;-77
2023/04/04 08:51:13;;;;;;;4.72;2.42;;;15.50;51.90;;;;;;6070953;23;92493;-77
2023/04/04 08:53:41;;;;;;;3.35;2.40;;;14.90;52.60;;;;;;6096403;23;92416;-77
2023/04/04 08:56:08;;;;;;;4.32;2.40;;;14.20;53.60;;;;;;6070344;23;93597;-77
2023/04/04 08:58:37;;;;;;;4.93;2.25;;;13.30;55.00;;;;;;6096190;23;92960;-77
2023/04/04 09:01:06;;;;;;;5.38;2.35;;;12.80;54.80;;;;;;6095896;23;92477;-77
2023/04/04 09:03:33;;;;;;;4.78;2.30;;;12.30;57.00;;;;;;6070287;23;91761;-77
2023/04/04 09:06:01;;;;;;;2.90;2.10;;;11.80;57.30;;;;;;6045220;23;95656;-77
2023/04/04 09:08:28;;;;;;;3.85;2.22;;;11.30;57.40;;;;;;6070395;23;92879;-77
2023/04/04 09:10:56;;;;;;;2.88;1.90;;;10.90;58.50;;;;;;6044428;23;95435;-77
2023/04/04 09:13:23;;;;;;;3.97;2.53;;;10.60;59.80;;;;;;6095670;23;92521;-77
2023/04/04 09:15:56;;;;;;;2.90;2.15;;;10.30;60.90;;;;;;6045680;23;95750;-77
2023/04/04 09:18:23;;;;;;;3.63;1.88;;;10.20;61.30;;;;;;6069584;23;93847;-77
2023/04/04 09:20:50;;;;;;;3.67;1.73;;;9.90;61.50;;;;;;6070068;23;92399;-77
2023/04/04 09:23:19;;;;;;;4.53;1.90;;;9.70;60.40;;;;;;6045772;23;92448;-77
2023/04/04 09:25:51;;;;;;;1.98;1.80;;;9.40;61.50;;;;;;6070554;23;93271;-78
2023/04/04 09:28:29;;;;;;;4.32;1.80;;;9.30;62.10;;;;;;6096555;23;92815;-77
2023/04/04 09:31:01;;;;;;;2.65;1.73;;;9.10;62.40;;;;;;6070485;23;92428;-77
2023/04/04 09:33:28;;;;;;;4.07;2.13;;;9.10;63.40;;;;;;6070014;23;92418;-77
2023/04/04 09:36:03;;;;;;;4.30;1.90;;;9.00;63.30;;;;;;6094079;23;95767;-77
2023/04/04 09:38:31;;;;;;;3.00;1.92;;;8.90;63.70;;;;;;6069983;23;95443;-77
2023/04/04 09:40:58;;;;;;;3.58;1.90;;;8.90;64.20;;;;;;6069851;23;92400;-77
2023/04/04 09:43:25;;;;;;;4.10;1.90;;;8.90;65.20;;;;;;6070200;23;92574;-77
2023/04/04 09:45:54;;;;;;;3.25;2.17;;;8.80;66.00;;;;;;6095062;23;106137;-76
2023/04/04 09:48:31;;;;;;;2.97;2.20;;;8.70;66.10;;;;;;6096021;23;92870;-77
2023/04/04 09:50:58;;;;;;;3.60;2.00;;;8.80;66.40;;;;;;6095926;23;92781;-77
2023/04/04 09:53:26;;;;;;;5.10;1.90;;;8.80;67.00;;;;;;6096581;23;91664;-77
2023/04/04 09:55:56;;;;;;;5.95;2.72;;;8.90;65.60;;;;;;6095594;23;92952;-77
2023/04/04 09:58:28;;;;;;;6.07;1.85;;;9.00;65.40;;;;;;6069300;23;95341;-77
2023/04/04 10:00:59;;;;;;;3.67;1.85;;;9.10;65.50;;;;;;6094442;23;95250;-77
2023/04/04 10:03:28;;;;;;;2.35;1.63;;;9.20;65.50;;;;;;6095932;23;92368;-77
2023/04/04 10:05:56;;;;;;;2.80;2.05;;;9.20;65.60;;;;;;6095389;23;93115;-77
2023/04/04 10:08:26;;;;;;;3.17;1.90;;;9.40;65.30;;;;;;6095700;23;92815;-77
2023/04/04 10:10:58;;;;;;;5.22;2.10;;;9.50;64.10;;;;;;6069761;23;92462;-77
2023/04/04 10:13:40;;;;;;;3.63;2.13;;;9.50;64.00;;;;;;6069482;23;92456;-77
2023/04/04 10:16:09;;;;;;;2.67;1.60;;;9.60;63.70;;;;;;6069834;23;93074;-77
2023/04/04 10:18:36;;;;;;;3.83;1.83;;;9.60;63.40;;;;;;6096121;23;92933;-77
2023/04/04 10:21:05;;;;;;;2.72;1.80;;;9.50;63.50;;;;;;6093885;23;92501;-77
2023/04/04 10:23:37;;;;;;;2.22;1.60;;;9.40;62.50;;;;;;6095977;23;92484;-77
2023/04/04 10:26:04;;;;;;;3.42;1.92;;;9.50;62.70;;;;;;6067566;23;98404;-77
2023/04/04 10:28:33;;;;;;;2.25;1.77;;;9.40;62.90;;;;;;6069901;23;94195;-76
2023/04/04 10:31:21;;;;;;;3.40;1.73;;;9.40;63.20;;;;;;6095701;23;92373;-77
2023/04/04 10:34:24;;;;;;;3.35;1.70;;;9.40;62.80;;;;;;6070057;23;92403;-76
2023/04/04 10:37:07;;;;;;;4.13;1.65;;;9.50;61.50;;;;;;6069438;23;95733;-76
2023/04/04 10:40:01;;;;;;;4.70;1.80;;;9.60;61.20;;;;;;6095697;23;92901;-76
2023/04/04 10:42:32;;;;;;;2.25;1.60;;;9.60;60.60;;;;;;6045594;23;92385;-76
2023/04/04 10:45:01;;;;;;;4.60;1.60;;;9.60;59.80;;;;;;6070176;23;91677;-76
2023/04/04 10:47:44;;;;;;;2.53;1.80;;;9.70;59.80;;;;;;6095791;23;93386;-76
2023/04/04 10:50:11;;;;;;;2.90;1.65;;;9.70;60.60;;;;;;6095635;23;92899;-76
2023/04/04 10:52:43;;;;;;;2.17;1.98;;;9.80;61.20;;;;;;6094367;23;94692;-76
2023/04/04 10:55:14;;;;;;;2.20;1.80;;;10.10;61.40;;;;;;6095547;23;92351;-76
2023/04/04 10:57:46;;;;;;;1.75;1.65;;;10.30;60.50;;;;;;6095484;23;94289;-76
2023/04/04 11:00:17;;;;;;;3.20;2.08;;;10.50;58.70;;;;;;6069607;23;92955;-76
2023/04/04 11:02:58;;;;;;;3.72;1.75;;;10.70;59.20;;;;;;6070037;23;92390;-76
2023/04/04 11:05:30;;;;;;;3.30;2.33;;;11.00;58.00;;;;;;6095741;23;92463;-76
2023/04/04 11:08:01;;;;;;;5.38;1.98;;;11.00;55.60;;;;;;6046377;23;93927;-76
2023/04/04 11:10:34;;;;;;;2.95;2.10;;;11.10;56.70;;;;;;6046477;23;95408;-76
2023/04/04 11:13:11;;;;;;;2.60;2.03;;;11.10;56.00;;;;;;6095465;23;92882;-76
2023/04/04 11:15:50;;;;;;;4.90;1.92;;;11.30;56.80;;;;;;6045769;23;92430;-76
2023/04/04 11:18:19;;;;;;;3.33;1.77;;;11.50;57.70;;;;;;6067331;23;98299;-76
2023/04/04 11:21:04;;;;;;;2.83;2.05;;;11.70;58.60;;;;;;6094667;23;95301;-76
2023/04/04 11:23:51;;;;;;;3.92;2.42;;;11.90;57.70;;;;;;6095606;23;92386;-77
2023/04/04 11:26:36;;;;;;;3.00;2.13;;;11.90;57.30;;;;;;6093493;23;92369;-76
2023/04/04 11:29:06;;;;;;;3.35;2.03;;;11.90;56.40;;;;;;6069009;23;97386;-76
2023/04/04 11:31:46;;;;;;;2.83;2.40;;;11.70;56.30;;;;;;6069974;23;92862;-76
2023/04/04 11:34:28;;;;;;;2.10;1.90;;;11.80;55.70;;;;;;6069431;23;93167;-76
2023/04/04 11:36:55;;;;;;;2.65;2.10;;;11.50;54.50;;;;;;6045630;23;91777;-76
2023/04/04 11:39:27;;;;;;;2.13;1.92;;;11.40;54.60;;;;;;6094992;23;93179;-76
2023/04/04 11:41:56;;;;;;;2.90;2.22;;;11.40;54.00;;;;;;6095129;23;92986;-76
2023/04/04 11:44:28;;;;;;;2.75;2.00;;;11.30;55.60;;;;;;6093795;23;94800;-76
2023/04/04 11:46:59;;;;;;;3.60;2.60;;;11.60;56.40;;;;;;6045258;23;92507;-76
2023/04/04 11:49:31;;;;;;;4.03;2.10;;;11.70;55.70;;;;;;6094917;23;93308;-76
2023/04/04 11:51:57;;;;;;;3.22;2.45;;;11.80;56.40;;;;;;6069194;23;94115;-76
2023/04/04 11:54:26;;;;;;;3.50;2.15;;;11.80;56.70;;;;;;6095176;23;92905;-76
2023/04/04 11:56:53;;;;;;;3.92;2.20;;;11.90;56.60;;;;;;6095274;23;92311;-76
2023/04/04 11:59:21;;;;;;;5.40;2.30;;;11.90;55.70;;;;;;6094692;23;93233;-76
2023/04/04 12:01:49;;;;;;;5.32;2.35;;;12.10;56.20;;;;;;6095196;23;99150;-76
2023/04/04 12:04:20;;;;;;;4.03;2.80;;;12.40;55.90;;;;;;6095122;23;92328;-76
2023/04/04 12:06:52;;;;;;;6.88;2.55;;;12.40;55.40;;;;;;6069014;23;92458;-76
2023/04/04 12:09:19;;;;;;;2.50;2.10;;;12.30;53.10;;;;;;6043272;23;98099;-76
2023/04/04 12:11:47;;;;;;;4.65;2.40;;;12.20;54.30;;;;;;6068931;23;95364;-76
2023/04/04 12:14:22;;;;;;;3.67;2.40;;;12.10;53.80;;;;;;6044245;23;92427;-76
2023/04/04 12:16:51;;;;;;;4.38;2.83;;;12.20;53.90;;;;;;6094997;23;92321;-76
2023/04/04 12:19:18;;;;;;;4.65;2.58;;;11.90;51.80;;;;;;6068263;23;96195;-76
2023/04/04 12:21:46;;;;;;;4.88;2.40;;;11.70;54.70;;;;;;6094833;23;92909;-76
2023/04/04 12:24:13;;;;;;;4.70;2.83;;;11.70;55.50;;;;;;6068631;23;92468;-76
2023/04/04 12:26:42;;;;;;;3.95;2.65;;;11.70;55.70;;;;;;6045002;23;91716;-76
2023/04/04 12:29:11;;;;;;;3.72;2.63;;;11.70;55.00;;;;;;6094865;23;93238;-76
2023/04/04 12:31:41;;;;;;;5.88;2.60;;;11.90;56.30;;;;;;6020510;23;93957;-76
2023/04/04 12:34:22;;;;;;;3.10;2.80;;;12.00;55.50;;;;;;6069228;23;94761;-76
2023/04/04 12:36:55;;;;;;;4.65;2.58;;;12.00;54.80;;;;;;6096446;23;92328;-76
2023/04/04 12:39:26;;;;;;;3.35;2.47;;;12.00;55.20;;;;;;6045680;23;96043;-76
2023/04/04 12:42:02;;;;;;;3.40;2.92;;;12.20;56.10;;;;;;6070014;23;95414;-76
2023/04/04 12:44:35;;;;;;;5.03;2.72;;;12.40;56.40;;;;;;6046199;23;92484;-76
2023/04/04 12:47:05;;;;;;;3.27;2.33;;;12.50;54.70;;;;;;6096579;23;92362;-76
2023/04/04 12:49:38;;;;;;;4.63;2.75;;;12.40;53.20;;;;;;6095973;23;93220;-76
2023/04/04 12:52:07;;;;;;;5.22;2.65;;;12.40;53.40;;;;;;6070856;23;92974;-76
2023/04/04 12:54:38;;;;;;;3.50;2.28;;;12.30;53.80;;;;;;6096075;23;92425;-76
2023/04/04 12:57:06;;;;;;;4.15;2.40;;;12.40;54.40;;;;;;6096338;23;92497;-76
2023/04/04 12:59:35;;;;;;;3.17;2.88;;;12.50;53.90;;;;;;6094321;23;95509;-76
2023/04/04 13:02:11;;;;;;;3.72;2.72;;;12.60;53.80;;;;;;6069256;23;97764;-76
2023/04/04 13:04:39;;;;;;;2.65;2.40;;;12.70;54.80;;;;;;6070037;23;92386;-76